createdAt,value
2018-07-14T00:02:55.000Z,1013.341
2018-07-14T00:12:55.000Z,1013.33
2018-07-14T00:22:55.000Z,1013.336
2018-07-14T00:32:55.000Z,1013.315
2018-07-14T00:42:55.000Z,1013.31
2018-07-14T00:52:55.000Z,1013.296
2018-07-14T01:02:55.000Z,1013.302
2018-07-14T01:12:55.000Z,1013.284
2018-07-14T01:22:55.000Z,1013.276
2018-07-14T01:32:55.000Z,1013.244
2018-07-14T01:42:55.000Z,1013.174
2018-07-14T01:52:55.000Z,1013.184
2018-07-14T02:02:55.000Z,1013.247
2018-07-14T02:12:55.000Z,1013.256
2018-07-14T02:22:55.000Z,1013.329
2018-07-14T02:32:55.000Z,1013.292
2018-07-14T02:42:55.000Z,1013.328
2018-07-14T02:52:55.000Z,1013.273
2018-07-14T03:02:55.000Z,1013.263
2018-07-14T03:12:55.000Z,1013.185
2018-07-14T03:22:55.000Z,1013.128
2018-07-14T03:32:55.000Z,1013.14
2018-07-14T03:42:55.000Z,1013.089
2018-07-14T03:52:55.000Z,1013.093
2018-07-14T04:02:55.000Z,1013.068
2018-07-14T04:12:55.000Z,1013.064
2018-07-14T04:22:55.000Z,1013.083
2018-07-14T04:32:55.000Z,1013.178
2018-07-14T04:42:55.000Z,1013.1
2018-07-14T04:52:55.000Z,1013.071
2018-07-14T05:02:55.000Z,1013.237
2018-07-14T05:12:55.000Z,1013.089
2018-07-14T05:22:55.000Z,1013.112
2018-07-14T05:32:55.000Z,1013.195
2018-07-14T05:42:56.000Z,1013.253
2018-07-14T05:52:56.000Z,1013.319
2018-07-14T06:02:56.000Z,1013.369
2018-07-14T06:12:56.000Z,1013.562
2018-07-14T06:22:56.000Z,1013.598
2018-07-14T06:32:56.000Z,1013.591
2018-07-14T06:42:56.000Z,1013.586
2018-07-14T06:52:56.000Z,1013.711
2018-07-14T07:02:56.000Z,1013.763
2018-07-14T07:12:56.000Z,1013.763
2018-07-14T07:22:56.000Z,1013.843
2018-07-14T07:32:56.000Z,1013.878
2018-07-14T07:42:56.000Z,1013.883
2018-07-14T07:52:56.000Z,1013.848
2018-07-14T08:02:56.000Z,1013.817
2018-07-14T08:12:56.000Z,1013.769
2018-07-14T08:22:56.000Z,1013.713
2018-07-14T08:32:56.000Z,1013.818
2018-07-14T08:42:56.000Z,1013.795
2018-07-14T08:52:56.000Z,1013.827
2018-07-14T09:02:58.000Z,1013.802
2018-07-14T09:12:56.000Z,1013.761
2018-07-14T09:22:56.000Z,1013.636
2018-07-14T09:32:56.000Z,1013.582
2018-07-14T09:42:56.000Z,1013.575
2018-07-14T09:52:56.000Z,1013.56
2018-07-14T10:02:56.000Z,1013.394
2018-07-14T10:12:56.000Z,1013.33
2018-07-14T10:22:56.000Z,1013.231
2018-07-14T10:32:56.000Z,1013.21
2018-07-14T10:42:56.000Z,1013.23
2018-07-14T10:52:56.000Z,1013.182
2018-07-14T11:02:56.000Z,1013.108
2018-07-14T11:12:56.000Z,1013.034
2018-07-14T11:22:56.000Z,1012.941
2018-07-14T11:32:56.000Z,1012.87
2018-07-14T11:52:56.000Z,1012.725
2018-07-14T12:02:56.000Z,1012.611
2018-07-14T12:22:56.000Z,1012.447
2018-07-14T12:32:56.000Z,1012.347
2018-07-14T12:42:56.000Z,1012.176
2018-07-14T12:52:56.000Z,1012.15
2018-07-14T13:02:56.000Z,1012.091
2018-07-14T13:12:56.000Z,1012.01
2018-07-14T13:22:56.000Z,1011.876
2018-07-14T13:32:56.000Z,1011.803
2018-07-14T13:42:56.000Z,1011.746
2018-07-14T13:52:56.000Z,1011.625
2018-07-14T14:02:56.000Z,1011.59
2018-07-14T14:12:57.000Z,1011.371
2018-07-14T14:22:57.000Z,1011.31
2018-07-14T14:32:57.000Z,1011.263
2018-07-14T14:42:57.000Z,1011.226
2018-07-14T14:52:57.000Z,1011.178
2018-07-14T15:02:58.000Z,1011.11
2018-07-14T15:12:57.000Z,1011.024
2018-07-14T15:22:57.000Z,1010.904
2018-07-14T15:32:57.000Z,1010.887
2018-07-14T15:42:57.000Z,1010.837
2018-07-14T15:52:57.000Z,1010.761
2018-07-14T16:02:57.000Z,1010.736
2018-07-14T16:12:57.000Z,1010.8
2018-07-14T16:22:57.000Z,1010.82
2018-07-14T16:32:57.000Z,1010.804
2018-07-14T16:42:57.000Z,1010.711
2018-07-14T16:53:01.000Z,1010.725
2018-07-14T17:02:57.000Z,1010.772
2018-07-14T17:12:57.000Z,1010.761
2018-07-14T17:22:57.000Z,1010.752
2018-07-14T17:32:57.000Z,1010.748
2018-07-14T17:42:57.000Z,1010.681
2018-07-14T17:52:58.000Z,1010.75
2018-07-14T18:02:57.000Z,1010.727
2018-07-14T18:12:57.000Z,1010.663
2018-07-14T18:22:57.000Z,1010.678
2018-07-14T18:32:57.000Z,1010.644
2018-07-14T18:42:57.000Z,1010.719
2018-07-14T18:52:57.000Z,1010.818
2018-07-14T19:02:57.000Z,1010.865
2018-07-14T19:12:57.000Z,1010.969
2018-07-14T19:22:57.000Z,1011.018
2018-07-14T19:32:57.000Z,1011.085
2018-07-14T19:42:57.000Z,1011.091
2018-07-14T19:52:57.000Z,1011.197
2018-07-14T20:02:57.000Z,1011.219
2018-07-14T20:12:57.000Z,1011.252
2018-07-14T20:22:57.000Z,1011.299
2018-07-14T20:32:57.000Z,1011.313
2018-07-14T20:42:58.000Z,1011.397
2018-07-14T20:52:57.000Z,1011.5
2018-07-14T21:02:57.000Z,1011.497
2018-07-14T21:12:57.000Z,1011.468
2018-07-14T21:22:57.000Z,1011.451
2018-07-14T21:32:57.000Z,1011.473
2018-07-14T21:42:57.000Z,1011.523
2018-07-14T21:52:57.000Z,1011.55
2018-07-14T22:02:58.000Z,1011.538
2018-07-14T22:12:58.000Z,1011.553
2018-07-14T22:22:58.000Z,1011.545
2018-07-14T22:32:58.000Z,1011.618
2018-07-14T22:42:58.000Z,1011.651
2018-07-14T22:52:58.000Z,1011.615
2018-07-14T23:02:58.000Z,1011.614
2018-07-14T23:12:58.000Z,1011.728
2018-07-14T23:22:58.000Z,1011.702
2018-07-14T23:32:58.000Z,1011.619
2018-07-14T23:42:58.000Z,1011.64
2018-07-14T23:52:58.000Z,1011.569
